createdAt,value
2022-12-08T00:01:07.154Z,2.42
2022-12-08T00:03:35.052Z,2.33
2022-12-08T00:06:22.281Z,2.33
2022-12-08T00:09:08.878Z,2.40
2022-12-08T00:11:36.545Z,2.33
2022-12-08T00:14:03.999Z,2.72
2022-12-08T00:16:30.997Z,2.63
2022-12-08T00:18:58.150Z,3.35
2022-12-08T00:21:25.017Z,2.25
2022-12-08T00:23:55.445Z,2.95
2022-12-08T00:26:22.887Z,1.92
2022-12-08T00:28:50.312Z,2.10
2022-12-08T00:31:17.546Z,2.40
2022-12-08T00:33:45.052Z,2.25
2022-12-08T00:36:14.282Z,2.90
2022-12-08T00:38:42.377Z,1.77
2022-12-08T00:41:13.163Z,2.20
2022-12-08T00:43:40.745Z,2.92
2022-12-08T00:46:07.948Z,2.72
2022-12-08T00:48:35.432Z,1.92
2022-12-08T00:51:02.312Z,2.40
2022-12-08T00:53:30.983Z,2.45
2022-12-08T00:55:57.839Z,2.50
2022-12-08T00:58:24.959Z,2.55
2022-12-08T01:00:52.056Z,2.67
2022-12-08T01:03:19.689Z,3.00
2022-12-08T01:05:46.593Z,3.63
2022-12-08T01:08:14.175Z,3.22
2022-12-08T01:10:41.067Z,2.63
2022-12-08T01:13:08.495Z,2.63
2022-12-08T01:15:35.365Z,2.83
2022-12-08T01:18:02.585Z,2.78
2022-12-08T01:20:29.495Z,3.33
2022-12-08T01:22:56.924Z,3.22
2022-12-08T01:25:23.821Z,2.72
2022-12-08T01:27:52.627Z,2.78
2022-12-08T01:30:20.450Z,3.28
2022-12-08T01:32:47.972Z,2.95
2022-12-08T01:35:14.940Z,2.67
2022-12-08T01:37:42.109Z,3.25
2022-12-08T01:40:10.148Z,3.25
2022-12-08T01:42:38.402Z,3.72
2022-12-08T01:45:14.177Z,3.40
2022-12-08T01:47:44.265Z,3.40
2022-12-08T01:50:13.730Z,4.57
2022-12-08T01:52:47.685Z,4.03
2022-12-08T01:55:30.201Z,3.85
2022-12-08T01:58:05.115Z,3.30
2022-12-08T02:00:31.987Z,2.78
2022-12-08T02:03:02.447Z,3.42
2022-12-08T02:05:33.093Z,3.63
2022-12-08T02:08:04.478Z,3.00
2022-12-08T02:10:34.662Z,3.17
2022-12-08T02:13:04.843Z,3.30
2022-12-08T02:15:49.084Z,3.22
2022-12-08T02:18:16.217Z,3.55
2022-12-08T02:21:12.948Z,5.35
2022-12-08T02:23:51.406Z,4.00
2022-12-08T02:26:36.593Z,2.50
2022-12-08T02:29:13.634Z,4.15
2022-12-08T02:32:18.098Z,3.60
2022-12-08T02:34:59.516Z,3.38
2022-12-08T02:37:39.251Z,3.60
2022-12-08T02:40:30.581Z,3.22
2022-12-08T02:43:07.410Z,3.30
2022-12-08T02:45:40.958Z,3.20
2022-12-08T02:48:09.796Z,3.30
2022-12-08T02:50:37.062Z,3.40
2022-12-08T02:55:34.013Z,3.90
2022-12-08T02:58:19.382Z,4.07
2022-12-08T03:01:04.317Z,3.33
2022-12-08T03:03:37.168Z,3.47
2022-12-08T03:06:16.976Z,3.85
2022-12-08T03:09:04.084Z,3.47
2022-12-08T03:11:43.253Z,3.70
2022-12-08T03:14:13.394Z,3.80
2022-12-08T03:16:44.634Z,3.33
2022-12-08T03:19:20.946Z,3.78
2022-12-08T03:21:51.314Z,3.17
2022-12-08T03:24:19.869Z,3.78
2022-12-08T03:26:56.963Z,3.72
2022-12-08T03:29:24.544Z,4.13
2022-12-08T03:32:01.470Z,4.00
2022-12-08T03:34:29.917Z,4.25
2022-12-08T03:36:57.307Z,3.72
2022-12-08T03:39:24.212Z,3.72
2022-12-08T03:41:51.706Z,4.07
2022-12-08T03:44:18.574Z,4.05
2022-12-08T03:46:46.151Z,4.53
2022-12-08T03:49:12.992Z,3.83
2022-12-08T03:51:40.130Z,3.63
2022-12-08T03:54:06.999Z,3.85
2022-12-08T03:56:37.329Z,2.67
2022-12-08T03:59:06.125Z,3.08
2022-12-08T04:01:34.014Z,3.55
2022-12-08T04:04:01.146Z,3.85
2022-12-08T04:06:28.955Z,3.83
2022-12-08T04:08:55.977Z,4.13
2022-12-08T04:11:23.662Z,3.85
2022-12-08T04:13:50.520Z,4.10
2022-12-08T04:16:20.769Z,3.72
2022-12-08T04:18:47.786Z,3.45
2022-12-08T04:21:15.428Z,2.90
2022-12-08T04:23:42.797Z,3.65
2022-12-08T04:26:10.305Z,3.33
2022-12-08T04:28:37.615Z,3.90
2022-12-08T04:31:05.884Z,3.05
2022-12-08T04:33:32.889Z,3.17
2022-12-08T04:36:00.289Z,3.92
2022-12-08T04:38:28.449Z,4.25
2022-12-08T04:40:55.867Z,4.07
2022-12-08T04:43:22.758Z,4.53
2022-12-08T04:45:50.321Z,4.95
2022-12-08T04:48:17.358Z,4.15
2022-12-08T04:50:45.421Z,4.05
2022-12-08T04:53:13.526Z,3.22
2022-12-08T04:55:45.461Z,3.80
2022-12-08T04:58:14.740Z,4.07
2022-12-08T05:00:42.584Z,3.50
2022-12-08T05:03:09.894Z,3.63
2022-12-08T05:05:37.400Z,4.63
2022-12-08T05:08:05.527Z,4.25
2022-12-08T05:10:33.293Z,4.57
2022-12-08T05:13:00.856Z,5.28
2022-12-08T05:15:28.433Z,5.85
2022-12-08T05:17:55.404Z,5.05
2022-12-08T05:20:23.154Z,4.80
2022-12-08T05:22:50.385Z,3.63
2022-12-08T05:25:17.875Z,3.28
2022-12-08T05:27:44.802Z,4.10
2022-12-08T05:30:12.439Z,3.78
2022-12-08T05:32:39.320Z,4.57
2022-12-08T05:35:07.011Z,3.83
2022-12-08T05:37:34.059Z,4.00
2022-12-08T05:40:01.829Z,3.13
2022-12-08T05:42:29.042Z,3.42
2022-12-08T05:44:56.220Z,3.88
2022-12-08T05:47:23.200Z,4.10
2022-12-08T05:49:50.626Z,3.47
2022-12-08T05:52:17.729Z,5.05
2022-12-08T05:54:44.858Z,3.72
2022-12-08T05:57:11.894Z,4.13
2022-12-08T05:59:39.812Z,3.50
2022-12-08T06:02:08.790Z,4.65
2022-12-08T06:04:36.659Z,4.53
2022-12-08T06:07:03.682Z,4.85
2022-12-08T06:09:30.888Z,4.40
2022-12-08T06:11:57.825Z,4.38
2022-12-08T06:14:25.082Z,4.60
2022-12-08T06:16:52.193Z,5.47
2022-12-08T06:19:19.821Z,3.97
2022-12-08T06:21:46.739Z,4.13
2022-12-08T06:24:14.962Z,4.20
2022-12-08T06:26:42.638Z,4.35
2022-12-08T06:29:10.153Z,4.45
2022-12-08T06:31:37.120Z,4.30
2022-12-08T06:34:05.827Z,4.63
2022-12-08T06:36:32.848Z,4.82
2022-12-08T06:39:00.341Z,5.30
2022-12-08T06:41:27.228Z,4.78
2022-12-08T06:43:57.445Z,4.80
2022-12-08T06:46:24.741Z,4.55
2022-12-08T06:48:52.324Z,5.05
2022-12-08T06:51:22.890Z,4.53
2022-12-08T06:53:50.357Z,5.28
2022-12-08T06:56:20.243Z,5.22
2022-12-08T06:58:52.316Z,5.18
2022-12-08T07:01:19.765Z,4.95
2022-12-08T07:03:47.891Z,5.32
2022-12-08T07:06:24.967Z,5.13
2022-12-08T07:08:52.541Z,5.95
2022-12-08T07:11:21.884Z,6.53
2022-12-08T07:13:50.525Z,6.72
2022-12-08T07:16:17.753Z,5.50
2022-12-08T07:18:46.094Z,6.35
2022-12-08T07:21:15.047Z,6.80
2022-12-08T07:23:45.032Z,5.93
2022-12-08T07:26:13.026Z,6.38
2022-12-08T07:28:41.790Z,7.28
2022-12-08T07:31:17.365Z,7.15
2022-12-08T07:33:44.907Z,6.85
2022-12-08T07:36:12.059Z,7.25
2022-12-08T07:38:39.771Z,7.88
2022-12-08T07:41:11.203Z,7.30
2022-12-08T07:43:38.640Z,7.80
2022-12-08T07:46:05.743Z,7.32
2022-12-08T07:48:32.971Z,7.75
2022-12-08T07:51:04.218Z,7.72
2022-12-08T07:53:33.034Z,8.25
2022-12-08T07:56:00.097Z,8.88
2022-12-08T07:58:27.867Z,8.30
2022-12-08T08:00:55.021Z,63.22
2022-12-08T08:03:22.677Z,212.40
2022-12-08T08:05:50.129Z,284.48
2022-12-08T08:08:18.250Z,323.65
2022-12-08T08:10:46.302Z,546.65
2022-12-08T08:13:14.112Z,197.57
2022-12-08T08:15:41.308Z,34.00
2022-12-08T08:18:08.931Z,17.58
2022-12-08T08:20:35.926Z,91.22
2022-12-08T08:23:03.459Z,31.85
2022-12-08T08:25:30.309Z,24.25
2022-12-08T08:27:57.792Z,65.65
2022-12-08T08:30:24.784Z,83.55
2022-12-08T08:32:53.111Z,162.63
2022-12-08T08:35:20.455Z,67.90
2022-12-08T08:37:49.455Z,136.82
2022-12-08T08:40:17.994Z,30.63
2022-12-08T08:42:45.672Z,48.22
2022-12-08T08:45:12.665Z,16.70
2022-12-08T08:47:42.878Z,24.23
2022-12-08T08:50:10.204Z,205.57
2022-12-08T08:52:37.681Z,403.25
2022-12-08T08:55:04.951Z,246.98
2022-12-08T08:57:32.102Z,168.57
2022-12-08T08:59:59.028Z,251.95
2022-12-08T09:02:26.179Z,118.65
2022-12-08T09:04:53.602Z,96.80
2022-12-08T09:07:20.836Z,56.70
2022-12-08T09:09:47.811Z,53.05
2022-12-08T09:12:15.090Z,52.97
2022-12-08T09:14:42.018Z,31.10
2022-12-08T09:17:09.452Z,271.77
2022-12-08T09:19:36.420Z,183.52
2022-12-08T09:22:04.475Z,109.03
2022-12-08T09:24:31.512Z,100.28
2022-12-08T09:26:58.969Z,33.10
2022-12-08T09:29:28.748Z,18.40
2022-12-08T09:31:59.916Z,9.95
2022-12-08T09:34:26.919Z,10.65
2022-12-08T09:36:54.079Z,7.00
2022-12-08T09:39:20.970Z,8.02
2022-12-08T09:41:57.581Z,9.98
2022-12-08T09:44:38.645Z,9.73
2022-12-08T09:47:30.639Z,11.25
2022-12-08T09:50:05.421Z,9.32
2022-12-08T09:52:56.834Z,20.27
2022-12-08T09:55:50.913Z,16.63
2022-12-08T09:58:27.535Z,8.88
2022-12-08T10:00:54.477Z,68.22
2022-12-08T10:03:27.047Z,75.40
2022-12-08T10:06:13.398Z,19.88
2022-12-08T10:08:48.125Z,49.88
2022-12-08T10:11:24.844Z,31.23
2022-12-08T10:14:12.389Z,15.20
2022-12-08T10:16:41.910Z,10.48
2022-12-08T10:19:18.707Z,13.02
2022-12-08T10:21:45.738Z,24.48
2022-12-08T10:24:41.368Z,23.33
2022-12-08T10:27:12.612Z,9.90
2022-12-08T10:29:40.935Z,35.20
2022-12-08T10:32:19.068Z,15.93
2022-12-08T10:35:09.236Z,11.43
2022-12-08T10:37:36.387Z,42.17
2022-12-08T10:40:14.370Z,10.48
2022-12-08T10:42:46.126Z,28.60
2022-12-08T10:45:45.520Z,13.30
2022-12-08T10:48:17.634Z,18.35
2022-12-08T10:50:56.456Z,11.25
2022-12-08T10:53:31.905Z,15.07
2022-12-08T10:56:02.024Z,11.48
2022-12-08T10:58:35.812Z,10.75
2022-12-08T11:01:06.236Z,10.60
2022-12-08T11:03:47.799Z,10.63
2022-12-08T11:06:30.831Z,10.88
2022-12-08T11:09:19.067Z,10.63
2022-12-08T11:11:48.389Z,9.52
2022-12-08T11:14:28.256Z,11.60
2022-12-08T11:17:08.121Z,10.75
2022-12-08T11:19:39.158Z,10.35
2022-12-08T11:22:25.122Z,10.50
2022-12-08T11:25:12.505Z,9.75
2022-12-08T11:27:45.650Z,9.98
2022-12-08T11:30:25.727Z,9.68
2022-12-08T11:33:12.231Z,9.63
2022-12-08T11:35:42.589Z,8.75
2022-12-08T11:38:23.632Z,31.38
2022-12-08T11:40:55.351Z,76.50
2022-12-08T11:43:34.961Z,51.40
2022-12-08T11:46:09.735Z,39.47
2022-12-08T11:48:44.954Z,36.38
2022-12-08T11:51:30.911Z,34.22
2022-12-08T11:54:40.127Z,24.10
2022-12-08T11:57:13.293Z,18.70
2022-12-08T11:59:49.626Z,37.60
2022-12-08T12:02:30.031Z,36.17
2022-12-08T12:05:39.819Z,27.63
2022-12-08T12:08:29.031Z,19.90
2022-12-08T12:11:33.638Z,15.88
2022-12-08T12:14:59.841Z,17.90
2022-12-08T12:17:41.865Z,19.50
2022-12-08T12:20:24.912Z,10.95
2022-12-08T12:25:26.176Z,18.55
2022-12-08T12:28:00.689Z,10.13
2022-12-08T12:30:32.252Z,11.30
2022-12-08T12:33:01.559Z,9.73
2022-12-08T12:35:41.347Z,9.50
2022-12-08T12:38:44.838Z,8.90
2022-12-08T12:41:13.277Z,9.47
2022-12-08T12:44:00.854Z,8.90
2022-12-08T12:46:28.051Z,8.85
2022-12-08T12:49:33.937Z,9.07
2022-12-08T12:52:01.095Z,8.18
2022-12-08T12:54:29.574Z,9.88
2022-12-08T12:57:10.477Z,9.40
2022-12-08T12:59:55.126Z,10.43
2022-12-08T13:02:44.219Z,9.85
2022-12-08T13:05:34.859Z,11.30
2022-12-08T13:08:25.441Z,11.38
2022-12-08T13:11:08.964Z,10.68
2022-12-08T13:13:55.013Z,9.10
2022-12-08T13:16:26.104Z,7.90
2022-12-08T13:18:58.512Z,9.35
2022-12-08T13:21:33.812Z,8.95
2022-12-08T13:24:30.885Z,8.80
2022-12-08T13:27:04.346Z,8.52
2022-12-08T13:29:32.997Z,9.13
2022-12-08T13:32:39.031Z,7.78
2022-12-08T13:35:15.879Z,9.80
2022-12-08T13:37:54.893Z,9.77
2022-12-08T13:40:28.091Z,10.20
2022-12-08T13:46:18.341Z,9.68
2022-12-08T13:49:10.053Z,9.75
2022-12-08T13:57:26.416Z,9.77
2022-12-08T13:59:54.183Z,9.82
2022-12-08T14:02:30.111Z,10.13
2022-12-08T14:07:46.608Z,11.10
2022-12-08T14:10:20.839Z,10.93
2022-12-08T14:12:54.391Z,8.98
2022-12-08T14:15:22.396Z,10.63
2022-12-08T14:17:52.813Z,11.20
2022-12-08T14:20:26.095Z,11.57
2022-12-08T14:22:54.032Z,10.07
2022-12-08T14:25:22.893Z,12.80
2022-12-08T14:27:50.377Z,11.75
2022-12-08T14:30:26.291Z,13.35
2022-12-08T14:32:56.160Z,15.02
2022-12-08T14:35:25.603Z,12.88
2022-12-08T14:38:14.249Z,16.63
2022-12-08T14:40:42.765Z,15.18
2022-12-08T14:43:09.583Z,11.98
2022-12-08T14:45:43.124Z,11.02
2022-12-08T14:48:28.154Z,12.00
2022-12-08T14:51:16.188Z,10.90
2022-12-08T14:53:53.610Z,10.63
2022-12-08T14:56:28.405Z,11.68
2022-12-08T14:59:06.226Z,11.35
2022-12-08T15:01:34.393Z,12.98
2022-12-08T15:04:22.649Z,13.60
2022-12-08T15:06:50.027Z,12.35
2022-12-08T15:09:29.285Z,13.20
2022-12-08T15:12:23.266Z,13.23
2022-12-08T15:14:59.811Z,15.43
2022-12-08T15:17:42.658Z,14.00
2022-12-08T15:20:38.558Z,12.23
2022-12-08T15:23:06.631Z,11.32
2022-12-08T15:25:33.628Z,12.00
2022-12-08T15:28:03.055Z,11.43
2022-12-08T15:30:30.349Z,13.25
2022-12-08T15:32:57.528Z,13.32
2022-12-08T15:35:24.414Z,16.10
2022-12-08T15:37:51.661Z,19.35
2022-12-08T15:40:21.132Z,13.43
2022-12-08T15:42:48.887Z,11.13
2022-12-08T15:45:17.101Z,12.00
2022-12-08T15:47:45.363Z,10.70
2022-12-08T15:50:21.703Z,11.90
2022-12-08T15:52:50.297Z,10.57
2022-12-08T15:55:20.018Z,11.18
2022-12-08T15:58:44.984Z,10.68
2022-12-08T16:00:54.374Z,11.45
2022-12-08T16:09:17.805Z,11.82
2022-12-08T16:12:07.267Z,11.02
2022-12-08T16:17:27.087Z,10.77
2022-12-08T16:19:55.263Z,11.82
2022-12-08T16:25:20.287Z,11.95
2022-12-08T16:30:37.212Z,12.00
2022-12-08T16:33:04.495Z,14.43
2022-12-08T16:35:32.254Z,15.50
2022-12-08T16:37:59.510Z,13.68
2022-12-08T16:40:26.874Z,12.95
2022-12-08T16:42:54.078Z,14.55
2022-12-08T16:45:29.371Z,13.98
2022-12-08T16:47:58.944Z,13.43
2022-12-08T16:50:34.846Z,13.60
2022-12-08T16:53:07.352Z,13.80
2022-12-08T16:55:35.419Z,13.35
2022-12-08T16:58:03.637Z,11.75
2022-12-08T17:00:41.934Z,14.63
2022-12-08T17:03:08.913Z,13.50
2022-12-08T17:05:39.156Z,14.27
2022-12-08T17:08:06.387Z,14.00
2022-12-08T17:10:38.468Z,13.85
2022-12-08T17:13:05.567Z,13.05
2022-12-08T17:15:32.797Z,14.10
2022-12-08T17:18:00.131Z,14.07
2022-12-08T17:20:28.563Z,13.85
2022-12-08T17:22:58.633Z,12.00
2022-12-08T17:25:26.893Z,11.98
2022-12-08T17:27:54.399Z,12.50
2022-12-08T17:30:22.152Z,11.52
2022-12-08T17:32:49.133Z,13.68
2022-12-08T17:35:16.531Z,11.77
2022-12-08T17:37:43.890Z,11.88
2022-12-08T17:40:11.682Z,12.25
2022-12-08T17:42:38.989Z,13.90
2022-12-08T17:45:07.752Z,12.13
2022-12-08T17:47:35.196Z,11.98
2022-12-08T17:50:02.984Z,13.45
2022-12-08T17:52:30.145Z,13.25
2022-12-08T17:54:57.273Z,12.75
2022-12-08T17:57:25.234Z,13.15
2022-12-08T17:59:52.538Z,12.65
2022-12-08T18:02:19.952Z,36.72
2022-12-08T18:04:47.808Z,312.02
2022-12-08T18:07:14.711Z,85.57
2022-12-08T18:09:42.106Z,90.35
2022-12-08T18:12:08.994Z,31.17
2022-12-08T18:14:36.202Z,19.52
2022-12-08T18:17:03.346Z,14.25
2022-12-08T18:19:31.115Z,13.35
2022-12-08T18:21:58.117Z,11.73
2022-12-08T18:24:25.345Z,14.07
2022-12-08T18:26:52.658Z,15.20
2022-12-08T18:29:21.725Z,14.95
2022-12-08T18:31:52.185Z,12.68
2022-12-08T18:34:19.820Z,13.45
2022-12-08T18:36:48.373Z,14.25
2022-12-08T18:39:23.633Z,15.10
2022-12-08T18:41:51.589Z,11.45
2022-12-08T18:44:19.103Z,13.35
2022-12-08T18:46:46.046Z,12.40
2022-12-08T18:49:16.059Z,13.52
2022-12-08T18:51:43.842Z,11.35
2022-12-08T18:54:12.909Z,14.02
2022-12-08T18:56:40.086Z,14.68
2022-12-08T18:59:11.102Z,13.13
2022-12-08T19:01:39.625Z,13.57
2022-12-08T19:06:56.907Z,13.98
2022-12-08T19:09:26.686Z,13.13
2022-12-08T19:11:53.866Z,13.50
2022-12-08T19:14:27.784Z,14.13
2022-12-08T19:16:57.860Z,12.93
2022-12-08T19:19:25.865Z,12.05
2022-12-08T19:21:54.182Z,13.93
2022-12-08T19:24:21.398Z,13.48
2022-12-08T19:26:48.374Z,13.05
2022-12-08T19:29:17.195Z,13.55
2022-12-08T19:31:44.411Z,14.55
2022-12-08T19:34:15.325Z,13.55
2022-12-08T19:36:43.109Z,12.73
2022-12-08T19:39:33.708Z,13.07
2022-12-08T19:42:19.303Z,11.48
2022-12-08T19:44:54.119Z,13.88
2022-12-08T19:47:25.555Z,15.10
2022-12-08T19:49:55.352Z,12.35
2022-12-08T19:52:23.327Z,14.77
2022-12-08T19:54:50.576Z,12.40
2022-12-08T19:57:17.562Z,14.18
2022-12-08T19:59:44.922Z,14.02
2022-12-08T20:02:12.615Z,13.90
2022-12-08T20:04:40.398Z,14.98
2022-12-08T20:07:07.745Z,13.68
2022-12-08T20:09:35.039Z,15.43
2022-12-08T20:12:01.953Z,12.55
2022-12-08T20:14:29.258Z,13.55
2022-12-08T20:16:56.520Z,15.57
2022-12-08T20:19:23.906Z,15.20
2022-12-08T20:21:53.673Z,14.90
2022-12-08T20:24:20.944Z,15.02
2022-12-08T20:26:47.935Z,14.85
2022-12-08T20:29:17.106Z,14.02
2022-12-08T20:31:44.515Z,14.68
2022-12-08T20:34:16.988Z,13.63
2022-12-08T20:36:44.599Z,13.68
2022-12-08T20:39:14.140Z,12.63
2022-12-08T20:41:42.049Z,11.52
2022-12-08T20:44:10.978Z,13.63
2022-12-08T20:46:38.288Z,13.68
2022-12-08T20:49:06.064Z,13.63
2022-12-08T20:51:34.918Z,13.25
2022-12-08T20:54:04.793Z,13.50
2022-12-08T20:56:32.776Z,12.95
2022-12-08T20:59:01.308Z,14.35
2022-12-08T21:01:28.948Z,14.02
2022-12-08T21:03:56.987Z,13.75
2022-12-08T21:06:27.128Z,14.55
2022-12-08T21:08:54.526Z,14.13
2022-12-08T21:11:21.941Z,14.23
2022-12-08T21:13:50.628Z,12.57
2022-12-08T21:16:17.729Z,13.38
2022-12-08T21:18:45.484Z,13.85
2022-12-08T21:21:14.373Z,14.15
2022-12-08T21:23:43.190Z,14.05
2022-12-08T21:26:15.666Z,14.25
2022-12-08T21:28:43.597Z,13.10
2022-12-08T21:31:13.110Z,13.75
2022-12-08T21:33:40.892Z,16.30
2022-12-08T21:36:16.521Z,14.85
2022-12-08T21:38:44.615Z,14.65
2022-12-08T21:41:14.508Z,15.07
2022-12-08T21:43:42.818Z,15.00
2022-12-08T21:46:17.307Z,14.00
2022-12-08T21:48:44.681Z,13.25
2022-12-08T21:51:11.931Z,15.77
2022-12-08T21:53:39.298Z,14.82
2022-12-08T21:56:09.822Z,15.20
2022-12-08T21:58:39.798Z,15.18
2022-12-08T22:01:08.403Z,14.32
2022-12-08T22:03:36.324Z,15.73
2022-12-08T22:06:08.185Z,13.18
2022-12-08T22:08:36.443Z,12.95
2022-12-08T22:11:03.844Z,16.00
2022-12-08T22:13:33.946Z,14.63
2022-12-08T22:16:02.875Z,12.07
2022-12-08T22:18:30.788Z,13.43
2022-12-08T22:20:58.147Z,14.93
2022-12-08T22:23:25.740Z,15.05
2022-12-08T22:26:00.498Z,15.60
2022-12-08T22:28:30.412Z,14.38
2022-12-08T22:30:57.449Z,15.02
2022-12-08T22:33:24.833Z,13.50
2022-12-08T22:36:03.415Z,13.30
2022-12-08T22:38:34.310Z,13.77
2022-12-08T22:41:05.001Z,13.88
2022-12-08T22:43:33.612Z,13.38
2022-12-08T22:46:00.750Z,13.63
2022-12-08T22:48:28.787Z,13.40
2022-12-08T22:50:59.970Z,14.35
2022-12-08T22:53:27.362Z,13.13
2022-12-08T22:55:54.622Z,12.98
2022-12-08T22:58:22.285Z,12.98
2022-12-08T23:00:49.771Z,14.75
2022-12-08T23:03:17.578Z,16.42
2022-12-08T23:05:44.637Z,14.80
2022-12-08T23:08:15.983Z,15.35
2022-12-08T23:10:43.805Z,14.48
2022-12-08T23:13:12.417Z,14.30
2022-12-08T23:15:40.524Z,13.43
2022-12-08T23:18:08.578Z,14.40
2022-12-08T23:20:35.719Z,12.57
2022-12-08T23:23:03.290Z,11.95
2022-12-08T23:25:30.358Z,14.25
2022-12-08T23:27:57.509Z,14.80
2022-12-08T23:30:25.553Z,13.68
2022-12-08T23:32:56.552Z,14.40
2022-12-08T23:35:23.697Z,14.88
2022-12-08T23:37:51.287Z,13.25
2022-12-08T23:40:18.260Z,12.38
2022-12-08T23:42:45.538Z,14.25
2022-12-08T23:45:12.990Z,13.23
2022-12-08T23:47:40.580Z,12.90
2022-12-08T23:50:08.675Z,13.80
2022-12-08T23:52:36.337Z,12.48
2022-12-08T23:55:05.127Z,14.50
2022-12-08T23:57:32.768Z,14.63
2022-12-08T23:59:59.760Z,15.88
